Time;durP1;ratioP1;P1;durP2;ratioP2;P2;SDS_P1;SDS_P2;PMS_P1;PMS_P2;Temp;Humidity;BMP_temperature;BMP_pressure;BME280_temperature;BME280_humidity;BME280_pressure;Samples;Min_cycle;Max_cycle;Signal;HPM_P1;HPM_P2
2022/04/08 00:01:51;;;;;;;0.63;0.57;;;5.50;99.90;;;;;;4983591;28;20518;-76
2022/04/08 00:04:16;;;;;;;0.40;0.40;;;5.40;99.90;;;;;;4982887;28;20085;-76
2022/04/08 00:06:42;;;;;;;1.33;1.00;;;5.40;99.90;;;;;;4981898;28;20061;-78
2022/04/08 00:09:07;;;;;;;0.45;0.45;;;5.40;99.90;;;;;;4983883;28;20042;-77
2022/04/08 00:11:33;;;;;;;3.53;0.88;;;5.30;99.90;;;;;;4983227;28;20314;-77
2022/04/08 00:14:00;;;;;;;2.28;1.15;;;5.20;99.90;;;;;;4983156;28;20387;-76
2022/04/08 00:16:26;;;;;;;1.95;1.25;;;5.20;99.90;;;;;;4982670;28;20043;-77
2022/04/08 00:18:51;;;;;;;2.13;1.10;;;5.20;99.90;;;;;;4982973;28;20551;-77
2022/04/08 00:21:17;;;;;;;0.80;0.52;;;5.20;99.90;;;;;;4982829;28;20042;-77
2022/04/08 00:23:43;;;;;;;0.52;0.43;;;5.20;99.90;;;;;;4983660;28;20038;-77
2022/04/08 00:26:09;;;;;;;0.40;0.40;;;5.20;99.90;;;;;;4983453;28;20038;-77
2022/04/08 00:28:35;;;;;;;1.35;1.13;;;5.20;99.90;;;;;;4964004;28;20387;-77
2022/04/08 00:31:02;;;;;;;11.50;1.00;;;5.20;99.90;;;;;;4963673;28;20207;-77
2022/04/08 00:33:31;;;;;;;1.17;0.75;;;5.10;99.90;;;;;;4997072;28;20558;-76
2022/04/08 00:35:56;;;;;;;5.30;2.42;;;5.00;99.90;;;;;;5002226;28;20054;-76
2022/04/08 00:38:22;;;;;;;0.77;0.77;;;5.00;99.90;;;;;;5001020;28;20045;-77
2022/04/08 00:40:48;;;;;;;4.75;1.75;;;4.90;99.90;;;;;;4984757;28;20042;-76
2022/04/08 00:43:18;;;;;;;8.23;1.15;;;4.90;99.90;;;;;;5002146;28;20536;-76
2022/04/08 00:45:44;;;;;;;3.38;2.03;;;5.00;99.90;;;;;;4992390;28;20081;-77
2022/04/08 00:48:11;;;;;;;0.80;0.80;;;5.00;99.90;;;;;;4982306;28;20082;-77
2022/04/08 00:50:43;;;;;;;4.15;1.83;;;5.00;99.90;;;;;;4983420;28;20050;-76
2022/04/08 00:53:09;;;;;;;;;;;5.00;99.90;;;;;;4982326;28;20499;-77
2022/04/08 00:55:36;;;;;;;3.63;0.98;;;5.10;99.90;;;;;;4982831;28;19922;-77
2022/04/08 00:58:03;;;;;;;12.13;1.45;;;5.10;99.90;;;;;;4981913;28;20042;-76
2022/04/08 01:00:38;;;;;;;1.67;0.50;;;5.10;99.90;;;;;;4982266;28;20048;-76
2022/04/08 01:03:05;;;;;;;1.20;0.75;;;5.10;99.90;;;;;;4995120;28;20110;-77
2022/04/08 01:05:32;;;;;;;3.55;0.63;;;5.10;99.90;;;;;;4992206;28;20097;-77
2022/04/08 01:07:58;;;;;;;2.20;1.23;;;5.10;99.90;;;;;;4981745;28;20266;-77
2022/04/08 01:10:24;;;;;;;9.30;1.95;;;5.20;99.90;;;;;;5028838;23;20289;-74
2022/04/08 01:12:50;;;;;;;3.45;1.23;;;5.20;99.90;;;;;;5020392;28;20045;-74
2022/04/08 01:15:17;;;;;;;8.32;2.33;;;5.20;99.90;;;;;;5021750;28;20026;-74
2022/04/08 01:17:43;;;;;;;4.70;1.38;;;5.20;99.90;;;;;;5004438;28;20053;-74
2022/04/08 01:20:09;;;;;;;1.77;1.23;;;5.20;99.90;;;;;;5022478;28;20041;-74
2022/04/08 01:22:35;;;;;;;13.05;1.40;;;5.10;99.90;;;;;;5023024;28;20068;-74
2022/04/08 01:25:03;;;;;;;7.70;1.30;;;5.20;99.90;;;;;;5019970;28;20057;-74
2022/04/08 01:27:28;;;;;;;3.33;1.65;;;5.20;99.90;;;;;;5004060;28;20156;-74
2022/04/08 01:29:54;;;;;;;2.78;1.55;;;5.20;99.90;;;;;;5022307;28;20191;-74
2022/04/08 01:32:20;;;;;;;1.98;1.85;;;5.20;99.90;;;;;;5004339;28;20060;-74
2022/04/08 01:34:49;;;;;;;1.52;1.25;;;5.10;99.90;;;;;;5022454;28;20400;-74
2022/04/08 01:37:15;;;;;;;5.05;1.98;;;5.20;99.90;;;;;;5021923;28;20568;-74
2022/04/08 01:39:41;;;;;;;9.13;2.83;;;5.20;99.90;;;;;;5010889;28;20148;-74
2022/04/08 01:42:07;;;;;;;16.75;1.73;;;5.20;99.90;;;;;;4985648;28;20112;-74
2022/04/08 01:44:33;;;;;;;1.00;1.00;;;5.20;99.90;;;;;;5002162;28;20038;-74
2022/04/08 01:46:59;;;;;;;0.97;0.87;;;5.20;99.90;;;;;;5003736;28;20052;-74
2022/04/08 01:49:24;;;;;;;3.60;1.83;;;5.20;99.90;;;;;;5020913;28;20052;-74
2022/04/08 01:51:50;;;;;;;12.93;2.13;;;5.20;99.90;;;;;;5020946;28;20038;-73
2022/04/08 01:54:15;;;;;;;7.43;1.67;;;5.20;99.90;;;;;;5002825;28;20072;-73
2022/04/08 01:56:41;;;;;;;0.45;0.43;;;5.00;99.90;;;;;;5021505;28;20068;-74
2022/04/08 01:59:06;;;;;;;1.40;1.30;;;4.80;99.90;;;;;;5022533;28;20049;-74
2022/04/08 02:01:32;;;;;;;3.70;0.90;;;4.70;99.90;;;;;;5022080;28;20041;-76
2022/04/08 02:03:57;;;;;;;2.20;1.00;;;4.50;99.90;;;;;;5021971;28;20458;-75
2022/04/08 02:06:23;;;;;;;4.87;0.93;;;4.40;99.90;;;;;;5021986;28;20042;-75
2022/04/08 02:08:50;;;;;;;0.63;0.63;;;4.40;99.90;;;;;;5003539;28;20053;-75
2022/04/08 02:11:15;;;;;;;7.13;1.10;;;4.30;99.90;;;;;;5021152;28;20072;-75
2022/04/08 02:13:41;;;;;;;1.30;1.03;;;4.30;99.90;;;;;;5004596;28;20547;-75
2022/04/08 02:16:07;;;;;;;0.67;0.67;;;4.30;99.90;;;;;;5004437;28;20584;-75
2022/04/08 02:18:32;;;;;;;3.47;2.27;;;4.30;99.90;;;;;;5007980;28;20584;-75
2022/04/08 02:20:58;;;;;;;4.27;2.33;;;4.40;99.90;;;;;;5002423;28;20468;-75
2022/04/08 02:23:24;;;;;;;17.70;1.27;;;4.40;99.90;;;;;;5000854;28;20049;-74
2022/04/08 02:25:49;;;;;;;3.10;1.30;;;4.40;99.90;;;;;;5009192;28;20037;-75
2022/04/08 02:28:15;;;;;;;18.33;3.23;;;4.50;99.90;;;;;;5024089;28;20038;-75
2022/04/08 02:30:40;;;;;;;5.63;1.20;;;4.50;99.90;;;;;;5025675;28;20045;-75
2022/04/08 02:33:06;;;;;;;5.77;1.57;;;4.60;99.90;;;;;;5008276;28;20553;-75
2022/04/08 02:35:32;;;;;;;1.07;1.03;;;4.60;99.90;;;;;;5025366;28;20738;-75
2022/04/08 02:37:57;;;;;;;8.30;2.15;;;4.60;99.90;;;;;;5018432;28;20684;-75
2022/04/08 02:40:23;;;;;;;1.63;0.97;;;4.60;99.90;;;;;;5005512;28;20046;-75
2022/04/08 02:42:49;;;;;;;2.38;1.27;;;4.70;99.90;;;;;;5004123;28;20050;-75
2022/04/08 02:45:14;;;;;;;2.90;1.37;;;4.60;99.90;;;;;;5012149;28;20504;-75
2022/04/08 02:47:44;;;;;;;18.17;2.20;;;4.60;99.90;;;;;;5025599;28;20084;-74
2022/04/08 02:50:10;;;;;;;4.90;2.60;;;4.70;99.90;;;;;;5024945;28;20084;-75
2022/04/08 02:52:36;;;;;;;1.15;0.95;;;4.70;99.90;;;;;;5023898;28;20091;-75
2022/04/08 02:55:04;;;;;;;3.55;1.40;;;4.70;99.90;;;;;;5023983;28;20551;-75
2022/04/08 02:57:29;;;;;;;2.65;1.20;;;4.80;99.90;;;;;;5023185;28;20055;-75
2022/04/08 02:59:55;;;;;;;2.38;1.58;;;4.80;99.90;;;;;;5024214;28;20501;-75
2022/04/08 03:02:20;;;;;;;11.00;2.47;;;4.80;99.90;;;;;;5024973;28;20045;-74
2022/04/08 03:04:46;;;;;;;4.38;1.48;;;4.90;99.90;;;;;;5024978;28;20050;-75
2022/04/08 03:07:11;;;;;;;0.52;0.52;;;4.90;99.90;;;;;;5023860;28;20221;-75
2022/04/08 03:09:37;;;;;;;1.90;1.02;;;4.90;99.90;;;;;;5023270;28;20100;-74
2022/04/08 03:12:04;;;;;;;1.60;1.50;;;5.00;99.90;;;;;;5024674;28;20118;-75
2022/04/08 03:14:31;;;;;;;0.63;0.63;;;5.00;99.90;;;;;;5024290;28;20546;-74
2022/04/08 03:16:56;;;;;;;0.75;0.38;;;5.00;99.90;;;;;;5006967;28;20052;-75
2022/04/08 03:19:22;;;;;;;2.38;0.70;;;4.80;99.90;;;;;;5006577;28;20038;-75
2022/04/08 03:21:47;;;;;;;1.98;0.65;;;4.60;99.90;;;;;;5024806;28;20041;-74
2022/04/08 03:24:13;;;;;;;0.40;0.40;;;4.40;99.90;;;;;;5005659;28;20041;-75
2022/04/08 03:26:39;;;;;;;3.40;0.35;;;4.20;99.90;;;;;;5024557;28;20491;-75
2022/04/08 03:29:05;;;;;;;0.73;0.60;;;4.10;99.90;;;;;;5007049;28;20045;-75
2022/04/08 03:31:30;;;;;;;0.47;0.47;;;4.00;99.90;;;;;;5023755;28;20091;-75
2022/04/08 03:33:56;;;;;;;0.10;0.10;;;3.90;99.90;;;;;;5024576;28;20641;-75
2022/04/08 03:36:22;;;;;;;0.30;0.30;;;3.90;99.90;;;;;;5024254;28;20068;-75
2022/04/08 03:38:47;;;;;;;5.50;0.70;;;3.90;99.90;;;;;;4992721;28;20042;-75
2022/04/08 03:41:13;;;;;;;0.50;0.50;;;3.80;99.90;;;;;;5004332;28;20038;-75
2022/04/08 03:43:39;;;;;;;0.40;0.37;;;3.90;99.90;;;;;;5005316;28;20104;-75
2022/04/08 03:46:04;;;;;;;0.60;0.60;;;3.90;99.90;;;;;;5008490;28;20073;-75
2022/04/08 03:48:30;;;;;;;2.90;0.60;;;3.80;99.90;;;;;;5024276;28;20077;-75
2022/04/08 03:50:55;;;;;;;0.10;0.10;;;3.80;99.90;;;;;;5023254;28;20121;-75
2022/04/08 03:53:21;;;;;;;0.10;0.10;;;3.90;99.90;;;;;;5023054;28;20491;-75
2022/04/08 03:55:47;;;;;;;1.00;1.00;;;3.80;99.90;;;;;;5024036;28;20037;-75
2022/04/08 03:58:13;;;;;;;11.13;0.87;;;3.90;99.90;;;;;;5005658;28;20111;-75
2022/04/08 04:00:39;;;;;;;0.50;0.23;;;3.90;99.90;;;;;;5024351;28;20761;-73
2022/04/08 04:03:05;;;;;;;0.70;0.70;;;3.90;99.90;;;;;;5024321;28;20047;-75
2022/04/08 04:05:31;;;;;;;0.30;0.30;;;3.90;99.90;;;;;;5023579;28;20042;-76
2022/04/08 04:07:59;;;;;;;1.37;0.83;;;3.90;99.90;;;;;;5015835;28;20321;-75
2022/04/08 04:10:25;;;;;;;0.53;0.40;;;4.00;99.90;;;;;;5002784;28;20112;-75
2022/04/08 04:12:50;;;;;;;0.20;0.20;;;4.10;99.90;;;;;;5004121;28;20065;-75
2022/04/08 04:15:16;;;;;;;20.77;2.03;;;4.10;99.90;;;;;;5003554;28;20037;-75
2022/04/08 04:17:41;;;;;;;0.67;0.67;;;4.00;99.90;;;;;;4986357;28;20104;-75
2022/04/08 04:20:08;;;;;;;1.60;0.57;;;4.00;99.90;;;;;;5008933;28;20048;-75
2022/04/08 04:22:33;;;;;;;0.40;0.40;;;3.90;99.90;;;;;;4995620;28;20125;-75
2022/04/08 04:24:59;;;;;;;0.20;0.20;;;3.90;99.90;;;;;;5003649;28;20204;-75
2022/04/08 04:27:24;;;;;;;0.13;0.10;;;4.00;99.90;;;;;;5003538;28;20038;-75
2022/04/08 04:29:50;;;;;;;0.83;0.40;;;4.00;99.90;;;;;;5010009;28;20050;-75
2022/04/08 04:32:18;;;;;;;1.83;0.87;;;4.00;99.90;;;;;;5023098;28;20038;-75
2022/04/08 04:34:43;;;;;;;0.60;0.60;;;4.00;99.90;;;;;;5023563;28;20508;-76
2022/04/08 04:37:09;;;;;;;2.07;1.20;;;4.00;99.90;;;;;;5022935;28;20088;-75
2022/04/08 04:39:35;;;;;;;0.80;0.60;;;4.00;99.90;;;;;;5022567;28;20037;-75
2022/04/08 04:42:01;;;;;;;1.03;0.87;;;4.00;99.90;;;;;;5005615;28;20514;-76
2022/04/08 04:44:27;;;;;;;4.13;0.60;;;4.00;99.90;;;;;;5022826;28;20044;-75
2022/04/08 04:46:54;;;;;;;0.57;0.57;;;4.00;99.90;;;;;;5023025;28;20041;-75
2022/04/08 04:49:21;;;;;;;0.30;0.30;;;4.00;99.90;;;;;;5021183;28;20046;-75
2022/04/08 04:51:48;;;;;;;0.50;0.37;;;4.00;99.90;;;;;;5021970;28;20049;-75
2022/04/08 04:54:13;;;;;;;1.03;0.67;;;4.10;99.90;;;;;;5007321;28;20042;-75
2022/04/08 04:56:39;;;;;;;0.57;0.57;;;4.00;99.90;;;;;;5008443;28;20068;-76
2022/04/08 04:59:04;;;;;;;0.30;0.30;;;4.00;99.90;;;;;;5003068;28;20137;-75
2022/04/08 05:01:30;;;;;;;0.93;0.67;;;4.00;99.90;;;;;;5005313;28;20137;-75
2022/04/08 05:03:55;;;;;;;2.23;0.83;;;4.00;99.90;;;;;;5002895;28;20054;-75
2022/04/08 05:06:21;;;;;;;1.97;0.60;;;3.90;99.90;;;;;;5002705;28;20049;-75
2022/04/08 05:08:46;;;;;;;5.17;0.97;;;3.90;99.90;;;;;;5000999;28;20056;-75
2022/04/08 05:11:12;;;;;;;4.17;1.27;;;3.90;99.90;;;;;;4984943;28;20507;-76
2022/04/08 05:13:37;;;;;;;0.87;0.47;;;3.90;99.90;;;;;;5002326;28;20034;-75
2022/04/08 05:16:03;;;;;;;0.57;0.57;;;3.90;99.90;;;;;;5020679;28;20487;-75
2022/04/08 05:18:29;;;;;;;0.90;0.67;;;4.00;99.90;;;;;;5008056;28;20049;-75
2022/04/08 05:20:54;;;;;;;0.30;0.30;;;4.00;99.90;;;;;;4986146;28;20092;-75
2022/04/08 05:23:20;;;;;;;0.97;0.70;;;4.00;99.90;;;;;;5012539;28;20609;-75
2022/04/08 05:25:45;;;;;;;0.67;0.53;;;4.00;99.90;;;;;;5022371;28;20037;-76
2022/04/08 05:28:12;;;;;;;0.20;0.20;;;4.00;99.90;;;;;;4988338;28;20074;-77
2022/04/08 05:30:38;;;;;;;1.57;0.80;;;4.10;99.90;;;;;;4999944;28;20045;-76
2022/04/08 05:33:03;;;;;;;2.73;0.83;;;4.10;99.90;;;;;;5004739;28;20061;-75
2022/04/08 05:35:29;;;;;;;4.53;1.60;;;4.10;99.90;;;;;;5018346;28;20092;-75
2022/04/08 05:37:54;;;;;;;0.47;0.47;;;4.20;99.90;;;;;;5001989;28;20092;-75
2022/04/08 05:40:21;;;;;;;0.67;0.67;;;4.10;99.90;;;;;;5015562;28;20038;-74
2022/04/08 05:42:48;;;;;;;3.47;1.23;;;4.20;99.90;;;;;;4987857;28;20128;-76
2022/04/08 05:45:16;;;;;;;1.47;0.53;;;4.20;99.90;;;;;;5018758;28;20076;-75
2022/04/08 05:47:42;;;;;;;0.97;0.57;;;4.20;99.90;;;;;;5015844;28;20124;-79
2022/04/08 05:50:08;;;;;;;2.03;1.33;;;4.20;99.90;;;;;;5019581;28;20120;-77
2022/04/08 05:52:34;;;;;;;3.27;1.57;;;4.20;99.90;;;;;;5000414;28;20100;-75
2022/04/08 05:54:59;;;;;;;0.87;0.50;;;4.30;99.90;;;;;;5018271;28;20053;-77
2022/04/08 05:57:25;;;;;;;0.77;0.77;;;4.30;99.90;;;;;;4988947;28;20136;-78
2022/04/08 05:59:58;;;;;;;3.20;1.47;;;4.30;99.90;;;;;;5004219;28;20088;-77
2022/04/08 06:02:24;;;;;;;2.00;1.13;;;4.40;99.90;;;;;;5011039;28;20056;-80
2022/04/08 06:04:49;;;;;;;5.97;1.50;;;4.40;99.90;;;;;;5013949;28;20787;-81
2022/04/08 06:07:15;;;;;;;1.87;1.13;;;4.40;99.90;;;;;;5013761;28;20050;-80
2022/04/08 06:09:40;;;;;;;2.57;1.17;;;4.40;99.90;;;;;;5016553;28;20100;-81
2022/04/08 06:12:06;;;;;;;2.83;0.80;;;4.50;99.90;;;;;;5014008;28;20424;-80
2022/04/08 06:14:32;;;;;;;3.83;1.00;;;4.50;99.90;;;;;;5000198;28;20689;-81
2022/04/08 06:16:57;;;;;;;0.50;0.40;;;4.50;99.90;;;;;;5020375;28;20042;-78
2022/04/08 06:19:23;;;;;;;0.73;0.70;;;4.50;99.90;;;;;;5021867;28;20068;-80
2022/04/08 06:21:48;;;;;;;0.97;0.97;;;4.60;99.90;;;;;;5023056;28;20035;-79
2022/04/08 06:24:14;;;;;;;7.13;1.70;;;4.70;99.90;;;;;;5021762;28;20399;-79
2022/04/08 06:26:40;;;;;;;2.43;1.40;;;4.80;99.90;;;;;;5025228;28;20045;-79
2022/04/08 06:29:06;;;;;;;3.73;1.03;;;4.80;99.90;;;;;;5008822;28;20048;-79
2022/04/08 06:31:32;;;;;;;0.20;0.20;;;4.80;99.90;;;;;;5005456;28;20046;-79
2022/04/08 06:33:59;;;;;;;0.97;0.67;;;4.80;99.90;;;;;;5005866;28;20425;-79
2022/04/08 06:36:25;;;;;;;1.83;0.20;;;4.80;99.90;;;;;;4993552;28;20042;-80
2022/04/08 06:38:51;;;;;;;6.30;1.00;;;4.90;99.90;;;;;;5023086;28;20692;-79
2022/04/08 06:41:16;;;;;;;0.23;0.23;;;4.90;99.90;;;;;;5002837;28;20034;-79
2022/04/08 06:43:42;;;;;;;0.60;0.40;;;4.90;99.90;;;;;;4994492;28;20614;-78
2022/04/08 06:46:07;;;;;;;1.13;0.97;;;4.90;99.90;;;;;;5018855;28;20033;-78
2022/04/08 06:48:33;;;;;;;1.37;0.57;;;4.90;99.90;;;;;;5020201;28;20084;-76
2022/04/08 06:51:00;;;;;;;1.60;0.57;;;4.90;99.90;;;;;;5018970;28;20046;-78
2022/04/08 06:53:26;;;;;;;2.37;1.43;;;4.90;99.90;;;;;;5021337;28;20057;-76
2022/04/08 06:55:52;;;;;;;3.67;0.90;;;5.00;99.90;;;;;;5007042;28;20045;-75
2022/04/08 06:58:21;;;;;;;0.80;0.80;;;5.00;99.90;;;;;;5001505;28;20049;-75
2022/04/08 07:00:46;;;;;;;0.43;0.43;;;5.10;99.90;;;;;;5025146;28;20041;-76
2022/04/08 07:03:12;;;;;;;1.70;1.00;;;5.10;99.90;;;;;;5023879;28;20037;-76
2022/04/08 07:05:38;;;;;;;0.28;0.20;;;5.20;99.90;;;;;;5025180;28;20041;-76
2022/04/08 07:08:03;;;;;;;2.20;0.80;;;5.30;99.90;;;;;;5023456;28;20041;-76
2022/04/08 07:10:29;;;;;;;1.17;0.83;;;5.30;99.90;;;;;;5024580;28;20061;-76
2022/04/08 07:12:54;;;;;;;0.70;0.70;;;5.40;99.90;;;;;;5006588;28;20053;-76
2022/04/08 07:15:20;;;;;;;2.40;0.87;;;5.40;99.90;;;;;;4994403;28;20044;-77
2022/04/08 07:17:46;;;;;;;0.25;0.25;;;5.40;99.90;;;;;;4997963;28;20404;-84
2022/04/08 07:20:14;;;;;;;5.00;1.42;;;5.40;99.90;;;;;;5023382;28;20040;-78
2022/04/08 07:22:44;;;;;;;2.22;1.17;;;5.40;99.90;;;;;;5014555;28;20116;-78
2022/04/08 07:25:10;;;;;;;0.32;0.32;;;5.50;99.90;;;;;;4997029;28;20029;-79
2022/04/08 07:27:43;;;;;;;2.40;1.00;;;5.50;99.90;;;;;;5006668;28;20053;-79
2022/04/08 07:30:09;;;;;;;0.55;0.55;;;5.50;99.90;;;;;;5022974;28;20048;-75
2022/04/08 07:32:34;;;;;;;2.40;0.65;;;5.60;99.90;;;;;;5024414;28;20128;-79
2022/04/08 07:35:00;;;;;;;0.25;0.25;;;5.60;99.90;;;;;;5023809;28;20042;-79
2022/04/08 07:37:30;;;;;;;8.52;1.98;;;5.60;99.90;;;;;;5021522;28;20049;-79
2022/04/08 07:39:56;;;;;;;0.38;0.35;;;5.70;99.90;;;;;;5024141;28;20037;-79
2022/04/08 07:42:22;;;;;;;1.17;0.75;;;5.70;99.90;;;;;;5015724;28;20048;-78
2022/04/08 07:44:48;;;;;;;1.48;0.55;;;5.80;99.90;;;;;;4986924;28;20042;-79
2022/04/08 07:47:14;;;;;;;5.03;1.88;;;5.80;99.90;;;;;;5008293;28;20041;-79
2022/04/08 07:49:40;;;;;;;1.08;0.98;;;5.90;99.90;;;;;;4992724;28;20034;-79
2022/04/08 07:52:06;;;;;;;0.68;0.30;;;5.90;99.90;;;;;;5009678;28;20078;-79
2022/04/08 07:54:31;;;;;;;1.38;0.63;;;6.00;99.90;;;;;;5025248;28;20462;-79
2022/04/08 07:56:57;;;;;;;18.83;1.08;;;6.10;99.90;;;;;;5005625;28;20119;-79
2022/04/08 07:59:22;;;;;;;0.93;0.93;;;6.10;99.90;;;;;;5023735;28;20041;-79
2022/04/08 08:01:48;;;;;;;4.80;0.55;;;6.10;99.90;;;;;;5023950;28;20044;-79
2022/04/08 08:04:15;;;;;;;0.30;0.30;;;6.10;99.90;;;;;;5023749;28;20124;-79
2022/04/08 08:06:40;;;;;;;0.35;0.35;;;6.10;99.90;;;;;;5021089;28;20603;-78
2022/04/08 08:09:06;;;;;;;0.65;0.65;;;6.10;99.90;;;;;;5002185;28;20141;-78
2022/04/08 08:11:31;;;;;;;2.45;1.67;;;6.20;99.90;;;;;;5003947;28;20095;-78
2022/04/08 08:13:58;;;;;;;1.33;0.88;;;6.20;99.90;;;;;;5004128;28;20715;-79
2022/04/08 08:16:23;;;;;;;1.00;0.88;;;6.30;99.90;;;;;;5004945;28;20488;-79
2022/04/08 08:18:50;;;;;;;0.30;0.30;;;6.30;99.90;;;;;;4991729;28;20052;-77
2022/04/08 08:21:15;;;;;;;6.68;1.55;;;6.30;99.90;;;;;;5012903;28;20342;-78
2022/04/08 08:23:41;;;;;;;10.00;1.02;;;6.30;99.90;;;;;;5004129;28;20053;-78
2022/04/08 08:26:07;;;;;;;25.52;0.63;;;6.30;99.90;;;;;;5020434;28;20289;-77
2022/04/08 08:28:32;;;;;;;6.00;0.90;;;6.30;99.90;;;;;;5002756;28;20562;-77
2022/04/08 08:30:58;;;;;;;0.30;0.30;;;6.30;99.90;;;;;;4985313;28;20053;-77
2022/04/08 08:33:26;;;;;;;11.25;2.40;;;6.30;99.90;;;;;;5020262;28;20037;-77
2022/04/08 08:35:52;;;;;;;1.10;0.57;;;6.30;99.90;;;;;;5005146;28;20464;-77
2022/04/08 08:38:17;;;;;;;0.70;0.55;;;6.30;99.90;;;;;;5021579;28;20042;-78
2022/04/08 08:40:44;;;;;;;0.70;0.70;;;6.40;99.90;;;;;;5022327;28;20064;-77
2022/04/08 08:43:17;;;;;;;2.08;1.48;;;6.40;99.90;;;;;;5022525;28;20042;-77
2022/04/08 08:45:49;;;;;;;0.20;0.20;;;6.50;99.90;;;;;;5021984;28;20041;-77
2022/04/08 08:48:16;;;;;;;;;;;6.60;99.90;;;;;;5019883;28;20511;-77
2022/04/08 08:50:46;;;;;;;0.40;0.40;;;6.60;99.90;;;;;;4999090;28;20023;-77
2022/04/08 08:53:16;;;;;;;1.25;0.98;;;6.70;99.90;;;;;;5001003;28;20041;-77
2022/04/08 08:55:42;;;;;;;1.00;0.90;;;6.70;99.90;;;;;;4988972;28;20041;-77
2022/04/08 08:58:08;;;;;;;6.38;0.85;;;6.80;99.90;;;;;;5006902;28;20190;-76
2022/04/08 09:00:35;;;;;;;0.85;0.85;;;6.90;99.90;;;;;;4989614;28;20491;-76
2022/04/08 09:03:02;;;;;;;1.00;0.75;;;6.90;99.90;;;;;;5021606;28;20492;-77
2022/04/08 09:05:28;;;;;;;22.35;1.30;;;6.90;99.90;;;;;;5003340;28;20385;-76
2022/04/08 09:08:04;;;;;;;0.80;0.80;;;6.90;99.90;;;;;;5003658;28;20465;-76
2022/04/08 09:10:43;;;;;;;0.40;0.40;;;6.90;99.90;;;;;;5021439;28;20076;-77
2022/04/08 09:13:09;;;;;;;0.50;0.50;;;7.00;99.90;;;;;;5014493;28;20167;-76
2022/04/08 09:15:37;;;;;;;1.25;0.82;;;7.00;99.90;;;;;;5012511;28;20132;-78
2022/04/08 09:18:11;;;;;;;14.65;1.33;;;7.00;99.90;;;;;;5021513;28;20041;-76
2022/04/08 09:20:45;;;;;;;1.75;1.00;;;7.00;99.90;;;;;;5003822;28;20394;-76
2022/04/08 09:23:13;;;;;;;1.60;0.93;;;7.10;99.90;;;;;;5004147;28;20484;-76
2022/04/08 09:25:39;;;;;;;2.30;0.65;;;7.10;99.90;;;;;;5028331;28;20041;-76
2022/04/08 09:28:18;;;;;;;0.63;0.35;;;7.10;99.90;;;;;;5021214;28;20378;-77
2022/04/08 09:30:53;;;;;;;8.18;1.02;;;7.20;99.90;;;;;;5003955;28;20448;-78
2022/04/08 09:33:20;;;;;;;0.82;0.82;;;7.10;99.90;;;;;;5020987;28;20091;-78
2022/04/08 09:35:47;;;;;;;3.55;1.50;;;7.20;99.90;;;;;;5021061;28;20261;-79
2022/04/08 09:38:22;;;;;;;1.42;0.52;;;7.20;99.90;;;;;;5019537;28;20478;-81
2022/04/08 09:40:48;;;;;;;0.73;0.73;;;7.10;99.90;;;;;;5017766;28;20100;-80
2022/04/08 09:43:15;;;;;;;0.45;0.45;;;7.20;99.90;;;;;;5006785;28;20488;-80
2022/04/08 09:45:41;;;;;;;3.30;0.65;;;7.20;99.90;;;;;;5001799;28;20064;-81
2022/04/08 09:48:08;;;;;;;1.75;0.75;;;7.30;99.90;;;;;;5001472;28;20512;-81
2022/04/08 09:50:36;;;;;;;3.28;1.15;;;7.40;99.90;;;;;;4992566;28;20034;-81
2022/04/08 09:53:06;;;;;;;0.28;0.28;;;7.40;99.90;;;;;;5002996;28;20046;-81
2022/04/08 09:55:33;;;;;;;1.35;1.08;;;7.40;99.90;;;;;;5003978;28;20049;-81
2022/04/08 09:58:04;;;;;;;1.83;0.82;;;7.40;99.90;;;;;;5005422;28;20162;-81
2022/04/08 10:00:31;;;;;;;0.60;0.60;;;7.40;99.90;;;;;;5003748;28;20433;-81
2022/04/08 10:03:01;;;;;;;0.45;0.45;;;7.30;99.90;;;;;;5018311;28;20495;-81
2022/04/08 10:05:27;;;;;;;0.52;0.52;;;7.10;99.90;;;;;;5021863;28;20055;-80
2022/04/08 10:07:55;;;;;;;1.10;0.98;;;6.90;99.90;;;;;;5021385;28;20041;-81
2022/04/08 10:10:40;;;;;;;0.30;0.30;;;6.70;99.90;;;;;;5021746;28;20080;-81
2022/04/08 10:13:43;;;;;;;1.20;0.55;;;6.50;99.90;;;;;;5022111;28;20048;-82
2022/04/08 10:16:20;;;;;;;6.28;0.68;;;6.50;99.90;;;;;;5003750;28;20044;-85
2022/04/08 10:18:47;;;;;;;0.70;0.52;;;6.40;99.90;;;;;;5001992;28;20181;-86
2022/04/08 10:21:14;;;;;;;4.90;1.33;;;6.30;99.90;;;;;;5008052;28;20038;-85
2022/04/08 10:23:48;;;;;;;2.92;1.70;;;6.30;99.90;;;;;;5016620;28;20060;-83
2022/04/08 10:26:32;;;;;;;2.47;1.27;;;6.40;99.90;;;;;;5021391;28;20049;-78
2022/04/08 10:29:08;;;;;;;0.85;0.75;;;6.50;99.90;;;;;;5003479;28;20578;-81
2022/04/08 10:31:34;;;;;;;3.60;0.80;;;6.50;99.90;;;;;;5003540;28;20148;-82
2022/04/08 10:34:01;;;;;;;2.40;2.00;;;6.70;99.90;;;;;;5017896;28;20490;-82
2022/04/08 10:36:43;;;;;;;2.33;0.57;;;6.80;99.90;;;;;;5002587;28;20052;-78
2022/04/08 10:39:20;;;;;;;0.43;0.40;;;6.90;99.90;;;;;;5020174;28;20051;-79
2022/04/08 10:41:57;;;;;;;1.17;0.90;;;7.00;99.90;;;;;;5002556;28;20072;-82
2022/04/08 10:44:33;;;;;;;0.30;0.30;;;7.00;99.90;;;;;;5004037;28;20033;-81
2022/04/08 10:47:01;;;;;;;3.70;1.83;;;7.10;99.90;;;;;;5001637;28;20081;-82
2022/04/08 10:49:27;;;;;;;0.55;0.55;;;7.10;99.90;;;;;;5015615;28;20064;-81
2022/04/08 10:51:53;;;;;;;0.40;0.40;;;7.10;99.90;;;;;;5023890;28;20069;-82
2022/04/08 10:54:20;;;;;;;1.33;0.55;;;7.10;99.90;;;;;;5007995;28;20053;-77
2022/04/08 10:56:56;;;;;;;13.10;0.75;;;7.20;99.90;;;;;;5007814;28;20045;-78
2022/04/08 10:59:27;;;;;;;3.85;1.20;;;7.20;99.90;;;;;;5003103;28;20113;-77
2022/04/08 11:01:58;;;;;;;0.88;0.70;;;7.20;99.90;;;;;;4997564;28;20099;-77
2022/04/08 11:04:28;;;;;;;0.82;0.82;;;7.20;99.90;;;;;;5023837;28;20334;-77
2022/04/08 11:06:54;;;;;;;0.73;0.73;;;7.20;99.90;;;;;;5022890;28;20426;-79
2022/04/08 11:09:20;;;;;;;1.90;1.20;;;7.20;99.90;;;;;;5005673;28;20057;-78
2022/04/08 11:11:52;;;;;;;6.30;0.47;;;7.20;99.90;;;;;;5022640;28;20116;-78
2022/04/08 11:14:18;;;;;;;3.90;1.23;;;7.30;99.90;;;;;;5023736;28;20655;-78
2022/04/08 11:16:43;;;;;;;2.00;0.77;;;7.40;99.90;;;;;;5020560;28;20037;-78
2022/04/08 11:19:12;;;;;;;0.55;0.55;;;7.40;99.90;;;;;;5014115;28;20257;-80
2022/04/08 11:21:39;;;;;;;0.60;0.40;;;7.40;99.90;;;;;;4999631;28;20096;-78
2022/04/08 11:24:10;;;;;;;0.93;0.93;;;7.40;99.90;;;;;;4986719;28;20038;-78
2022/04/08 11:26:54;;;;;;;3.42;1.23;;;7.40;99.90;;;;;;5002355;28;20033;-78
2022/04/08 11:29:27;;;;;;;1.23;0.90;;;7.40;99.90;;;;;;5012964;28;20056;-79
2022/04/08 11:32:05;;;;;;;5.22;0.77;;;7.40;99.90;;;;;;5008771;28;20037;-80
2022/04/08 11:34:31;;;;;;;2.85;0.82;;;7.40;99.90;;;;;;5003750;28;20052;-81
2022/04/08 11:36:57;;;;;;;1.70;1.23;;;7.40;99.90;;;;;;4990868;28;20041;-82
2022/04/08 11:39:23;;;;;;;2.85;0.68;;;7.40;99.90;;;;;;4991672;28;20075;-81
2022/04/08 11:41:53;;;;;;;0.60;0.60;;;7.40;99.90;;;;;;5032312;28;20041;-81
2022/04/08 11:44:19;;;;;;;3.53;1.42;;;7.40;99.90;;;;;;5008778;28;20044;-81
2022/04/08 11:46:45;;;;;;;5.97;0.63;;;7.40;99.90;;;;;;5024359;28;20037;-78
2022/04/08 11:49:11;;;;;;;2.10;1.10;;;7.40;99.90;;;;;;5016067;28;20054;-80
2022/04/08 11:51:37;;;;;;;4.68;0.77;;;7.40;99.90;;;;;;4985481;28;20041;-80
2022/04/08 11:54:03;;;;;;;0.35;0.35;;;7.30;99.90;;;;;;5026146;28;20510;-79
2022/04/08 11:56:28;;;;;;;5.82;1.23;;;7.30;99.90;;;;;;5032181;28;20081;-80
2022/04/08 11:59:02;;;;;;;0.57;0.50;;;7.30;99.90;;;;;;5003362;28;20132;-80
2022/04/08 12:01:37;;;;;;;3.53;1.15;;;7.30;99.90;;;;;;5023384;28;20084;-82
2022/04/08 12:04:08;;;;;;;0.60;0.60;;;7.30;99.90;;;;;;5012130;28;20046;-83
2022/04/08 12:06:45;;;;;;;1.13;0.45;;;7.30;99.90;;;;;;5010140;28;20046;-82
2022/04/08 12:09:12;;;;;;;1.30;0.43;;;7.30;99.90;;;;;;5022226;28;20049;-80
2022/04/08 12:11:39;;;;;;;0.63;0.57;;;7.30;99.90;;;;;;5005511;28;20053;-80
2022/04/08 12:14:08;;;;;;;1.20;1.08;;;7.30;99.90;;;;;;5022596;28;20048;-79
2022/04/08 12:16:34;;;;;;;8.70;0.68;;;7.40;99.90;;;;;;4986225;28;20141;-82
2022/04/08 12:19:02;;;;;;;0.40;0.40;;;7.40;99.90;;;;;;4985458;28;20516;-85
2022/04/08 12:21:29;;;;;;;3.50;0.65;;;7.50;99.90;;;;;;5015775;28;20120;-82
2022/04/08 12:23:57;;;;;;;3.22;0.65;;;7.50;99.90;;;;;;4955018;28;20350;-81
2022/04/08 12:26:31;;;;;;;15.68;1.60;;;7.60;99.90;;;;;;5002580;28;20049;-83
2022/04/08 12:29:07;;;;;;;2.47;1.05;;;7.70;99.90;;;;;;5004345;28;20124;-90
2022/04/08 12:31:53;;;;;;;0.40;0.40;;;7.80;99.90;;;;;;5013694;28;20105;-81
2022/04/08 12:34:19;;;;;;;3.83;0.95;;;7.80;99.90;;;;;;5006916;28;20049;-80
2022/04/08 12:36:46;;;;;;;1.85;0.80;;;7.70;99.90;;;;;;5021635;28;20377;-81
2022/04/08 12:39:11;;;;;;;14.70;1.23;;;7.80;99.90;;;;;;5003065;28;20042;-81
2022/04/08 12:41:41;;;;;;;0.40;0.40;;;7.70;99.90;;;;;;5003034;28;20042;-81
2022/04/08 12:44:08;;;;;;;3.72;0.57;;;7.70;99.90;;;;;;5001997;28;20053;-81
2022/04/08 12:46:35;;;;;;;1.25;0.57;;;7.70;99.90;;;;;;4998175;28;20120;-81
2022/04/08 12:49:00;;;;;;;0.65;0.63;;;7.70;99.90;;;;;;4995853;28;20038;-81
2022/04/08 12:51:28;;;;;;;7.20;0.73;;;7.70;99.90;;;;;;4992737;28;20099;-82
2022/04/08 12:53:53;;;;;;;4.10;1.08;;;7.70;99.90;;;;;;5015245;28;20053;-82
2022/04/08 12:56:19;;;;;;;6.78;0.88;;;7.70;99.90;;;;;;5001367;28;20537;-81
2022/04/08 12:58:45;;;;;;;0.30;0.30;;;7.70;99.90;;;;;;5016489;28;20403;-83